Flight Track Log - Related Links

Times and Time Zones

All times are in EDT time to prevent confusion due to time zone crossing. See the LXJ519 flight status page for this flight to view local times or setup timezone preferences in your user account.

Time Position Orientation Groundspeed Altitude Reporting Facility
EDT Latitude Longitude Course Direction KTS MPH feet Rate Location/Type
Fri 10:07:58 AM 25.4428 -76.8519 238° Southwest 324 373 14,600  Level Miami Center
Fri 10:08:58 AM 25.4594 -76.9553 280° West 330 380 17,100 2,400 Climbing Miami Center
Fri 10:09:58 AM 25.4783 -77.0706 280° West 358 412 19,400 2,400 Climbing Miami Center
Fri 10:10:58 AM 25.4967 -77.1903 285° West 387 445 21,900 1,300 Climbing Miami Center
Fri 10:11:00 AM 25.2046 -77.1184 238° Southwest  Level FlightAware Approximate
Fri 10:11:00 AM 25.4994 -77.1569 285° West  Level Estimated
Fri 10:11:58 AM 25.5175 -77.3194 280° West 409 471 22,000  Level Miami Center
Fri 10:12:00 AM 25.1633 -77.1927 238° Southwest  Level FlightAware Approximate
Fri 10:12:58 AM 25.5358 -77.4461 279° West 416 479 22,000  Level Miami Center
Fri 10:13:58 AM 25.5561 -77.5775 280° West 411 473 22,000  Level Miami Center
Fri 10:14:58 AM 25.5742 -77.6950 280° West 405 466 22,000  Level Miami Center
Fri 10:15:58 AM 25.5903 -77.8172 278° West 405 466 22,000  Level Miami Center
Fri 10:16:58 AM 25.6081 -77.9489 279° West 411 473 22,000  Level Miami Center
Fri 10:17:58 AM 25.6300 -78.0736 281° West 422 486 22,000  Level Miami Center
Fri 10:18:58 AM 25.6478 -78.2006 279° West 422 486 22,000  Level Miami Center
Fri 10:19:58 AM 25.6656 -78.3228 279° West 422 486 22,000  Level Miami Center
Fri 10:20:58 AM 25.6850 -78.4453 280° West 417 480 22,000  Level Miami Center
Fri 10:21:58 AM 25.7006 -78.5700 278° West 410 472 22,000  Level Miami Center
Fri 10:22:58 AM 25.7261 -78.6903 283° West 410 472 22,000 -900 Level Miami Center
Fri 10:23:58 AM 25.7414 -78.8128 278° West 405 466 20,200 -1,950 Descending Miami Center
Fri 10:24:58 AM 25.7583 -78.9353 279° West 405 466 18,100 -1,950 Descending Miami Center
Fri 10:25:58 AM 25.7714 -79.0442 278° West 405 466 16,300 -1,900 Descending Miami Center
Fri 10:26:58 AM 25.7864 -79.1597 278° West 399 459 14,300 -2,050 Descending Miami Center
Fri 10:27:58 AM 25.8014 -79.2731 278° West 381 438 12,200 -2,000 Descending Miami Center
Fri 10:28:58 AM 25.8161 -79.3889 278° West 361 415 10,300 -1,800 Descending Miami Center
Fri 10:29:58 AM 25.8292 -79.4792 279° West 337 388 8,600 -1,760 Descending Miami Center
Fri 10:30:13 AM 25.8325 -79.5183 275° West 317 365 8,100 -1,688 Descending Miami Center
Fri 10:31:02 AM 25.8439 -79.5925 280° West 292 336 6,800 -1,200 Descending Miami Center
Fri 10:31:58 AM 25.8592 -79.6619 284° West 309 356 6,000 -517 Descending Miami Center
Fri 10:32:58 AM 25.9272 -79.7075 329° Northwest 261 300 5,800 -1,400 Descending Miami Center
Fri 10:33:58 AM 26.0064 -79.7164 354° North 253 291 3,200 -1,400 Descending Miami Center
Fri 10:34:58 AM 26.0836 -79.7228 356° North 266 306 3,000 -100 Descending Miami Center
Fri 10:35:58 AM 26.1608 -79.7317 354° North 266 306 3,000  Level Miami Center
Fri 10:36:58 AM 26.2333 -79.7611 340° North 266 306 3,000  Level Miami Center
Fri 10:37:58 AM 26.2589 -79.8428 289° West 254 292 3,000  Level Miami Center
Fri 10:38:58 AM 26.2781 -79.9175 286° West 253 291 3,000 80 Level Miami Center
Fri 10:39:13 AM 26.2839 -79.9408 286° West 270 311 3,100  Climbing Miami Center
Fri 10:39:58 AM 26.2953 -79.9897 285° West 262 302 3,000 -98 Descending Miami Center
Fri 10:40:14 AM 26.2842 -80.0242 250° West 261 300 3,000 -701 Level Miami Center
Fri 10:41:15 AM 26.2700 -80.1028 259° West 258 297 2,100 -492 Descending Miami Center
Fri 10:42:16 AM 26.2683 -80.1722 268° West 190 219 2,000 -49 Descending Miami Center
Fri 10:43:18 AM 26.2694 -80.2161 272° West 135 155 2,000 -49 Level Miami Center
Fri 10:44:19 AM 26.2419 -80.2317 207° Southwest 135 155 1,900 -541 Descending Miami Center
Fri 10:45:20 AM 26.2175 -80.2031 134° Southeast 128 147 900 -984 Descending Miami Center
Fri 10:47:00 AM 26.1973 -80.1707 125° Southeast  Level Estimated

Login

Don't have an account? Register now (free) for customized features, flight alerts, and more!